Time;durP1;ratioP1;P1;durP2;ratioP2;P2;SDS_P1;SDS_P2;PMS_P1;PMS_P2;Temp;Humidity;BMP_temperature;BMP_pressure;BME280_temperature;BME280_humidity;BME280_pressure;Samples;Min_cycle;Max_cycle;Signal;HPM_P1;HPM_P2
2021/07/30 00:02:11;;;;;;;8.47;5.50;;;;;;;;;;5076707;28;20810;-78
2021/07/30 00:04:39;;;;;;;6.80;5.27;;;;;;;;;;5076683;28;20449;-78
2021/07/30 00:07:06;;;;;;;17.30;6.63;;;;;;;;;;5076992;28;20927;-77
2021/07/30 00:09:33;;;;;;;10.63;5.50;;;;;;;;;;5076578;28;20442;-77
2021/07/30 00:12:02;;;;;;;11.70;5.40;;;;;;;;;;5077024;28;20445;-77
2021/07/30 00:14:29;;;;;;;8.43;5.50;;;;;;;;;;5076511;28;20531;-78
2021/07/30 00:16:56;;;;;;;12.27;6.23;;;;;;;;;;5076389;28;20478;-79
2021/07/30 00:19:23;;;;;;;11.70;6.77;;;;;;;;;;5077368;28;20444;-78
2021/07/30 00:21:50;;;;;;;12.27;5.80;;;;;;;;;;5077127;28;20791;-78
2021/07/30 00:24:18;;;;;;;7.93;6.30;;;;;;;;;;5075090;28;20964;-78
2021/07/30 00:26:45;;;;;;;6.90;5.60;;;;;;;;;;5075972;28;20455;-78
2021/07/30 00:29:13;;;;;;;11.50;5.80;;;;;;;;;;5075940;28;20819;-79
2021/07/30 00:31:41;;;;;;;12.97;5.37;;;;;;;;;;5076163;28;20464;-78
2021/07/30 00:34:08;;;;;;;13.83;5.77;;;;;;;;;;5076110;28;20451;-79
2021/07/30 00:36:35;;;;;;;10.77;6.30;;;;;;;;;;5076100;28;20529;-79
2021/07/30 00:39:02;;;;;;;8.03;6.10;;;;;;;;;;5076057;28;20472;-79
2021/07/30 00:41:35;;;;;;;7.43;5.80;;;;;;;;;;5076011;28;20484;-80
2021/07/30 00:44:02;;;;;;;13.37;6.40;;;;;;;;;;5076075;28;20441;-81
2021/07/30 00:46:30;;;;;;;12.00;6.23;;;;;;;;;;5075662;28;21019;-80
2021/07/30 00:48:58;;;;;;;6.37;5.23;;;;;;;;;;5075469;28;20481;-83
2021/07/30 00:51:27;;;;;;;9.00;5.80;;;;;;;;;;5075714;28;20935;-84
2021/07/30 00:53:54;;;;;;;8.50;5.97;;;;;;;;;;5075541;28;20439;-80
2021/07/30 00:56:22;;;;;;;12.87;6.83;;;;;;;;;;5075697;28;20445;-82
2021/07/30 00:58:50;;;;;;;7.67;6.23;;;;;;;;;;5075521;28;20455;-82
2021/07/30 01:01:17;;;;;;;7.93;7.00;;;;;;;;;;5075856;28;20445;-81
2021/07/30 01:03:46;;;;;;;6.60;5.90;;;;;;;;;;5075920;28;20553;-82
2021/07/30 01:06:14;;;;;;;9.43;6.23;;;;;;;;;;5075313;28;20496;-81
2021/07/30 01:08:41;;;;;;;8.73;6.30;;;;;;;;;;5075641;28;20449;-79
2021/07/30 01:11:08;;;;;;;8.40;6.20;;;;;;;;;;5075566;28;20790;-80
2021/07/30 01:13:35;;;;;;;9.97;7.07;;;;;;;;;;5075490;28;20482;-81
2021/07/30 01:16:03;;;;;;;8.03;6.67;;;;;;;;;;5075267;28;20549;-72
2021/07/30 01:18:30;;;;;;;10.57;6.63;;;;;;;;;;5075196;28;20493;-80
2021/07/30 01:21:03;;;;;;;10.53;6.20;;;;;;;;;;5075314;28;20441;-81
2021/07/30 01:23:32;;;;;;;12.00;7.90;;;;;;;;;;5075069;28;20435;-81
2021/07/30 01:25:59;;;;;;;7.50;6.73;;;;;;;;;;5075262;28;20453;-81
2021/07/30 01:28:30;;;;;;;10.87;6.87;;;;;;;;;;5075207;28;20532;-80
2021/07/30 01:30:57;;;;;;;10.00;6.90;;;;;;;;;;5075155;28;20546;-79
2021/07/30 01:33:24;;;;;;;10.37;6.37;;;;;;;;;;5074762;28;20455;-79
2021/07/30 01:35:51;;;;;;;10.90;7.77;;;;;;;;;;5074923;28;20468;-79
2021/07/30 01:38:18;;;;;;;8.83;7.17;;;;;;;;;;5075038;28;20506;-78
2021/07/30 01:40:47;;;;;;;8.73;7.13;;;;;;;;;;5074613;28;20437;-79
2021/07/30 01:43:14;;;;;;;11.73;6.80;;;;;;;;;;5075069;28;20441;-79
2021/07/30 01:45:42;;;;;;;9.83;6.47;;;;;;;;;;5074522;28;20440;-79
2021/07/30 01:48:09;;;;;;;11.50;7.90;;;;;;;;;;5074938;28;20494;-79
2021/07/30 01:50:36;;;;;;;9.80;6.27;;;;;;;;;;5074727;28;20430;-79
2021/07/30 01:53:03;;;;;;;12.37;6.77;;;;;;;;;;5074345;28;21042;-79
2021/07/30 01:55:30;;;;;;;11.43;6.87;;;;;;;;;;5074331;28;20932;-79
2021/07/30 01:57:59;;;;;;;14.30;7.00;;;;;;;;;;5074507;28;20572;-79
2021/07/30 02:00:26;;;;;;;8.00;6.13;;;;;;;;;;5074357;28;20939;-79
2021/07/30 02:02:53;;;;;;;11.60;6.43;;;;;;;;;;5075059;28;20782;-79
2021/07/30 02:05:20;;;;;;;10.50;6.50;;;;;;;;;;5074204;28;20495;-78
2021/07/30 02:07:48;;;;;;;12.60;6.80;;;;;;;;;;5074775;28;20782;-78
2021/07/30 02:10:15;;;;;;;11.30;6.60;;;;;;;;;;5074184;28;20445;-78
2021/07/30 02:15:28;;;;;;;15.50;6.83;;;;;;;;;;5074177;28;20409;-78
2021/07/30 02:17:55;;;;;;;10.90;7.73;;;;;;;;;;5074148;28;20492;-77
2021/07/30 02:20:23;;;;;;;8.50;6.83;;;;;;;;;;5074230;28;20434;-77
2021/07/30 02:22:50;;;;;;;9.60;6.80;;;;;;;;;;5074341;28;20802;-78
2021/07/30 02:25:17;;;;;;;10.20;7.20;;;;;;;;;;5074109;28;20442;-77
2021/07/30 02:27:44;;;;;;;8.40;6.67;;;;;;;;;;5073671;28;20444;-77
2021/07/30 02:30:12;;;;;;;10.80;6.77;;;;;;;;;;5073999;28;20854;-77
2021/07/30 02:32:40;;;;;;;9.47;6.90;;;;;;;;;;5073653;28;20534;-78
2021/07/30 02:35:08;;;;;;;10.77;6.47;;;;;;;;;;5073889;28;20805;-78
2021/07/30 02:37:35;;;;;;;11.50;6.20;;;;;;;;;;5073643;28;20809;-76
2021/07/30 02:40:02;;;;;;;12.20;6.50;;;;;;;;;;5074441;28;20440;-77
2021/07/30 02:42:30;;;;;;;10.00;6.60;;;;;;;;;;5074169;28;20450;-77
2021/07/30 02:44:57;;;;;;;14.53;8.20;;;;;;;;;;5073949;28;20437;-77
2021/07/30 02:47:24;;;;;;;8.27;7.50;;;;;;;;;;5072741;28;20451;-77
2021/07/30 02:49:53;;;;;;;11.47;7.53;;;;;;;;;;5074219;28;20531;-77
2021/07/30 02:52:20;;;;;;;8.60;7.40;;;;;;;;;;5073888;28;20834;-77
2021/07/30 02:54:47;;;;;;;11.63;6.73;;;;;;;;;;5073795;28;20452;-77
2021/07/30 02:57:14;;;;;;;7.83;6.50;;;;;;;;;;5073367;28;20533;-79
2021/07/30 02:59:41;;;;;;;13.47;7.23;;;;;;;;;;5073586;28;20972;-77
2021/07/30 03:02:08;;;;;;;12.97;7.50;;;;;;;;;;5073636;28;20523;-77
2021/07/30 03:04:36;;;;;;;12.90;7.20;;;;;;;;;;5073578;28;20445;-76
2021/07/30 03:07:04;;;;;;;14.90;8.00;;;;;;;;;;5073661;28;20442;-77
2021/07/30 03:09:32;;;;;;;9.70;6.80;;;;;;;;;;5073298;28;20441;-78
2021/07/30 03:11:59;;;;;;;11.60;7.10;;;;;;;;;;5073523;28;20538;-78
2021/07/30 03:14:26;;;;;;;11.67;7.53;;;;;;;;;;5073254;28;20441;-77
2021/07/30 03:16:53;;;;;;;11.70;7.37;;;;;;;;;;5073559;28;20470;-77
2021/07/30 03:19:20;;;;;;;12.57;7.00;;;;;;;;;;5073700;28;20575;-78
2021/07/30 03:21:47;;;;;;;12.80;7.50;;;;;;;;;;5073102;28;20540;-77
2021/07/30 03:24:16;;;;;;;12.07;7.37;;;;;;;;;;5073081;28;20459;-77
2021/07/30 03:26:43;;;;;;;16.40;8.73;;;;;;;;;;5073915;28;20772;-77
2021/07/30 03:29:10;;;;;;;9.53;7.20;;;;;;;;;;5074148;28;20436;-78
2021/07/30 03:31:38;;;;;;;12.47;8.40;;;;;;;;;;5073026;28;20514;-78
2021/07/30 03:34:05;;;;;;;9.37;6.63;;;;;;;;;;5073377;28;20532;-76
2021/07/30 03:36:33;;;;;;;12.10;7.97;;;;;;;;;;5072920;28;20445;-76
2021/07/30 03:39:00;;;;;;;15.47;8.90;;;;;;;;;;5073311;28;20844;-76
2021/07/30 03:41:28;;;;;;;14.03;7.60;;;;;;;;;;5073218;28;20448;-77
2021/07/30 03:43:56;;;;;;;8.33;7.27;;;;;;;;;;5073253;28;20798;-76
2021/07/30 03:46:23;;;;;;;9.70;7.20;;;;;;;;;;5073639;28;20441;-76
2021/07/30 03:48:50;;;;;;;8.33;7.30;;;;;;;;;;5073497;28;20555;-77
2021/07/30 03:51:17;;;;;;;15.83;7.60;;;;;;;;;;5072866;28;20451;-76
2021/07/30 03:53:44;;;;;;;10.37;7.77;;;;;;;;;;5072783;28;20445;-76
2021/07/30 03:56:15;;;;;;;11.77;7.40;;;;;;;;;;5073595;28;20433;-75
2021/07/30 03:58:43;;;;;;;8.97;7.07;;;;;;;;;;5075290;28;20489;-75
2021/07/30 04:01:11;;;;;;;9.43;7.87;;;;;;;;;;5076169;28;20955;-76
2021/07/30 04:03:38;;;;;;;19.90;8.80;;;;;;;;;;5076426;28;20506;-75
2021/07/30 04:06:06;;;;;;;12.23;8.70;;;;;;;;;;5076356;28;20441;-75
2021/07/30 04:08:34;;;;;;;10.17;8.07;;;;;;;;;;5076350;28;20445;-79
2021/07/30 04:11:01;;;;;;;9.27;7.00;;;;;;;;;;5076640;28;20441;-75
2021/07/30 04:13:28;;;;;;;11.60;8.07;;;;;;;;;;5076881;28;20436;-71
2021/07/30 04:16:01;;;;;;;14.73;9.13;;;;;;;;;;5076519;28;20448;-70
2021/07/30 04:18:29;;;;;;;11.10;8.07;;;;;;;;;;5076039;28;20981;-71
2021/07/30 04:20:56;;;;;;;14.87;8.27;;;;;;;;;;5076452;28;20792;-71
2021/07/30 04:23:23;;;;;;;19.23;7.77;;;;;;;;;;5076064;28;20529;-71
2021/07/30 04:25:50;;;;;;;9.10;7.47;;;;;;;;;;5071686;28;20507;-71
2021/07/30 04:28:18;;;;;;;14.17;7.93;;;;;;;;;;5068418;28;20524;-71
2021/07/30 04:30:45;;;;;;;15.30;8.50;;;;;;;;;;5076131;28;20445;-71
2021/07/30 04:33:13;;;;;;;11.20;7.37;;;;;;;;;;5076713;28;20521;-72
2021/07/30 04:35:41;;;;;;;10.07;7.33;;;;;;;;;;5076354;28;20443;-71
2021/07/30 04:38:08;;;;;;;10.87;7.53;;;;;;;;;;5076000;28;20490;-72
2021/07/30 04:40:35;;;;;;;11.87;6.87;;;;;;;;;;5076138;28;20447;-72
2021/07/30 04:43:02;;;;;;;10.20;7.00;;;;;;;;;;5076232;28;20441;-72
2021/07/30 04:45:30;;;;;;;10.60;7.43;;;;;;;;;;5076043;28;20521;-72
2021/07/30 04:47:57;;;;;;;15.63;8.30;;;;;;;;;;5075999;28;20848;-71
2021/07/30 04:50:26;;;;;;;8.40;6.77;;;;;;;;;;5075976;28;20448;-71
2021/07/30 04:52:55;;;;;;;9.73;7.00;;;;;;;;;;5075479;28;20456;-71
2021/07/30 04:55:22;;;;;;;9.43;6.80;;;;;;;;;;5076235;28;20443;-71
2021/07/30 04:57:50;;;;;;;10.70;7.73;;;;;;;;;;5075739;28;20795;-71
2021/07/30 05:00:18;;;;;;;8.00;7.20;;;;;;;;;;5075738;28;20529;-71
2021/07/30 05:02:45;;;;;;;11.80;7.17;;;;;;;;;;5076022;28;20533;-71
2021/07/30 05:05:12;;;;;;;16.83;7.50;;;;;;;;;;5075289;28;20454;-71
2021/07/30 05:07:42;;;;;;;10.27;7.17;;;;;;;;;;5075884;28;20501;-71
2021/07/30 05:10:10;;;;;;;11.53;6.00;;;;;;;;;;5075540;28;20540;-70
2021/07/30 05:12:37;;;;;;;19.07;7.07;;;;;;;;;;5075280;28;20522;-72
2021/07/30 05:15:05;;;;;;;10.37;7.13;;;;;;;;;;5075415;28;20438;-71
2021/07/30 05:17:32;;;;;;;14.33;6.67;;;;;;;;;;5075099;28;20535;-71
2021/07/30 05:19:59;;;;;;;12.73;7.40;;;;;;;;;;5074888;28;21011;-72
2021/07/30 05:22:26;;;;;;;6.77;5.93;;;;;;;;;;5075052;28;20451;-68
2021/07/30 05:24:55;;;;;;;9.55;7.25;;;;;;;;;;5074911;28;20444;-73
2021/07/30 05:27:22;;;;;;;11.63;6.20;;;;;;;;;;5074986;28;20448;-72
2021/07/30 05:29:49;;;;;;;13.83;7.00;;;;;;;;;;5074759;28;20448;-72
2021/07/30 05:32:16;;;;;;;8.73;6.47;;;;;;;;;;5074983;28;20486;-72
2021/07/30 05:34:50;;;;;;;7.07;6.37;;;;;;;;;;5074682;28;20540;-73
2021/07/30 05:37:17;;;;;;;7.97;6.93;;;;;;;;;;5074699;28;20432;-72
2021/07/30 05:39:44;;;;;;;12.63;7.00;;;;;;;;;;5074497;28;21002;-72
2021/07/30 05:42:13;;;;;;;11.07;6.10;;;;;;;;;;5074664;28;20858;-72
2021/07/30 05:44:40;;;;;;;15.60;7.00;;;;;;;;;;5074524;28;20450;-72
2021/07/30 05:47:08;;;;;;;12.47;7.03;;;;;;;;;;5074639;28;20502;-72
2021/07/30 05:49:35;;;;;;;12.67;7.13;;;;;;;;;;5074647;28;20542;-72
2021/07/30 05:52:02;;;;;;;14.73;6.97;;;;;;;;;;5074282;28;21018;-73
2021/07/30 05:54:30;;;;;;;11.50;6.20;;;;;;;;;;5075113;28;20447;-72
2021/07/30 05:56:57;;;;;;;17.03;6.70;;;;;;;;;;5074082;28;20440;-72
2021/07/30 05:59:26;;;;;;;8.47;6.07;;;;;;;;;;5074072;28;20472;-72
2021/07/30 06:01:53;;;;;;;15.20;7.13;;;;;;;;;;5074393;28;20796;-72
2021/07/30 06:04:20;;;;;;;8.90;6.00;;;;;;;;;;5074102;28;20968;-72
2021/07/30 06:06:47;;;;;;;9.70;5.80;;;;;;;;;;5073987;28;20441;-73
2021/07/30 06:09:15;;;;;;;12.60;6.17;;;;;;;;;;5074021;28;20483;-73
2021/07/30 06:11:42;;;;;;;9.60;6.90;;;;;;;;;;5074158;28;20526;-73
2021/07/30 06:14:09;;;;;;;9.50;6.07;;;;;;;;;;5074070;28;20441;-72
2021/07/30 06:16:37;;;;;;;10.53;6.33;;;;;;;;;;5074187;28;20535;-72
2021/07/30 06:19:05;;;;;;;9.20;6.07;;;;;;;;;;5074095;28;20488;-73
2021/07/30 06:21:33;;;;;;;13.43;6.57;;;;;;;;;;5073179;28;20471;-72
2021/07/30 06:24:00;;;;;;;10.93;6.23;;;;;;;;;;5073681;28;20446;-72
2021/07/30 06:26:27;;;;;;;9.93;5.63;;;;;;;;;;5073687;28;20501;-73
2021/07/30 06:28:54;;;;;;;10.90;6.43;;;;;;;;;;5073603;28;20493;-72
2021/07/30 06:31:22;;;;;;;11.53;6.40;;;;;;;;;;5073625;28;20973;-71
2021/07/30 06:33:50;;;;;;;10.10;5.80;;;;;;;;;;5073954;28;20776;-73
2021/07/30 06:36:18;;;;;;;8.53;5.93;;;;;;;;;;5073859;28;20454;-72
2021/07/30 06:38:45;;;;;;;15.23;6.23;;;;;;;;;;5074049;28;20585;-72
2021/07/30 06:41:15;;;;;;;10.67;5.93;;;;;;;;;;5074228;28;20454;-72
2021/07/30 06:43:42;;;;;;;11.67;6.00;;;;;;;;;;5073863;28;20510;-73
2021/07/30 06:46:09;;;;;;;8.40;4.93;;;;;;;;;;5073767;28;20429;-71
2021/07/30 06:48:36;;;;;;;8.40;4.90;;;;;;;;;;5074000;28;20478;-73
2021/07/30 06:51:05;;;;;;;9.63;6.00;;;;;;;;;;5073672;28;20533;-73
2021/07/30 06:53:32;;;;;;;7.07;5.53;;;;;;;;;;5074023;28;20528;-73
2021/07/30 06:56:00;;;;;;;8.57;6.30;;;;;;;;;;5073609;28;20442;-73
2021/07/30 06:58:28;;;;;;;11.27;5.23;;;;;;;;;;5073497;28;20440;-73
2021/07/30 07:00:57;;;;;;;12.00;5.80;;;;;;;;;;5074128;28;20474;-73
2021/07/30 07:03:26;;;;;;;15.13;5.70;;;;;;;;;;5074096;28;20985;-73
2021/07/30 07:08:36;;;;;;;10.30;6.17;;;;;;;;;;5070084;28;20438;-73
2021/07/30 07:11:04;;;;;;;9.60;5.40;;;;;;;;;;5073147;28;20446;-73
2021/07/30 07:13:31;;;;;;;12.17;5.50;;;;;;;;;;5073197;28;20447;-73
2021/07/30 07:15:59;;;;;;;8.63;6.00;;;;;;;;;;5073135;28;20805;-73
2021/07/30 07:18:26;;;;;;;9.77;5.30;;;;;;;;;;5073722;28;20552;-72
2021/07/30 07:20:57;;;;;;;11.47;5.37;;;;;;;;;;5073064;28;20446;-73
2021/07/30 07:23:24;;;;;;;10.63;5.57;;;;;;;;;;5073090;28;20442;-73
2021/07/30 07:25:53;;;;;;;6.77;4.80;;;;;;;;;;5073496;28;20535;-73
2021/07/30 07:28:20;;;;;;;7.73;4.90;;;;;;;;;;5073860;28;20430;-75
2021/07/30 07:30:49;;;;;;;20.07;6.40;;;;;;;;;;5072945;28;20450;-73
2021/07/30 07:33:16;;;;;;;8.23;4.33;;;;;;;;;;5075409;28;20439;-74
2021/07/30 07:35:44;;;;;;;11.23;4.50;;;;;;;;;;5077302;28;20440;-73
2021/07/30 07:38:11;;;;;;;10.97;4.33;;;;;;;;;;5077093;28;20475;-73
2021/07/30 07:40:38;;;;;;;9.70;4.73;;;;;;;;;;5077056;28;20487;-74
2021/07/30 07:43:07;;;;;;;10.40;4.83;;;;;;;;;;5077365;28;20447;-71
2021/07/30 07:45:34;;;;;;;11.73;4.90;;;;;;;;;;5077297;28;20531;-74
2021/07/30 07:48:01;;;;;;;12.77;4.67;;;;;;;;;;5076982;28;20446;-73
2021/07/30 07:50:28;;;;;;;7.70;4.73;;;;;;;;;;5076534;28;20534;-73
2021/07/30 07:52:56;;;;;;;10.37;4.40;;;;;;;;;;5076945;28;20452;-73
2021/07/30 07:55:23;;;;;;;6.90;4.60;;;;;;;;;;5076456;28;20446;-75
2021/07/30 07:57:50;;;;;;;7.47;5.00;;;;;;;;;;5076835;28;20525;-72
2021/07/30 08:00:19;;;;;;;9.43;5.10;;;;;;;;;;5077530;28;20471;-74
2021/07/30 08:02:46;;;;;;;10.17;4.33;;;;;;;;;;5076329;28;20451;-71
2021/07/30 08:05:13;;;;;;;7.90;4.97;;;;;;;;;;5076708;28;20933;-74
2021/07/30 08:07:40;;;;;;;8.70;5.40;;;;;;;;;;5076896;28;20478;-74
2021/07/30 08:10:09;;;;;;;7.97;4.80;;;;;;;;;;5076640;28;20537;-75
2021/07/30 08:12:36;;;;;;;11.77;5.20;;;;;;;;;;5076478;28;20845;-74
2021/07/30 08:15:03;;;;;;;9.80;4.30;;;;;;;;;;5076460;28;20448;-74
2021/07/30 08:17:32;;;;;;;7.40;5.10;;;;;;;;;;5076222;28;20452;-72
2021/07/30 08:19:59;;;;;;;5.13;4.30;;;;;;;;;;5076416;28;20481;-72
2021/07/30 08:22:26;;;;;;;8.87;3.97;;;;;;;;;;5076081;28;20447;-74
2021/07/30 08:24:53;;;;;;;8.53;4.10;;;;;;;;;;5076284;28;20443;-76
2021/07/30 08:27:21;;;;;;;9.70;4.73;;;;;;;;;;5076272;28;20496;-76
2021/07/30 08:29:48;;;;;;;9.23;4.20;;;;;;;;;;5076629;28;20535;-76
2021/07/30 08:32:17;;;;;;;8.40;3.83;;;;;;;;;;5076436;28;20445;-77
2021/07/30 08:34:45;;;;;;;6.63;3.50;;;;;;;;;;5076266;28;20463;-76
2021/07/30 08:37:13;;;;;;;6.33;3.83;;;;;;;;;;5076133;28;20527;-76
2021/07/30 08:39:40;;;;;;;5.70;3.70;;;;;;;;;;5076309;28;20483;-74
2021/07/30 08:42:07;;;;;;;3.77;3.30;;;;;;;;;;5075881;28;20443;-83
2021/07/30 08:44:34;;;;;;;10.13;4.20;;;;;;;;;;5074637;28;20448;-79
2021/07/30 08:47:02;;;;;;;4.87;3.00;;;;;;;;;;5075750;28;20547;-75
2021/07/30 08:49:33;;;;;;;5.60;4.67;;;;;;;;;;5075938;28;20455;-77
2021/07/30 08:52:08;;;;;;;7.67;3.90;;;;;;;;;;5075601;28;20437;-75
2021/07/30 08:54:35;;;;;;;5.93;3.67;;;;;;;;;;5075854;28;20798;-76
2021/07/30 08:57:02;;;;;;;7.30;3.80;;;;;;;;;;5075343;28;20451;-76
2021/07/30 08:59:30;;;;;;;6.23;3.67;;;;;;;;;;5076139;28;20526;-74
2021/07/30 09:01:57;;;;;;;7.10;3.53;;;;;;;;;;5075317;28;20530;-74
2021/07/30 09:04:28;;;;;;;4.03;3.27;;;;;;;;;;5075168;28;20934;-73
2021/07/30 09:06:55;;;;;;;3.80;3.23;;;;;;;;;;5075558;28;20944;-76
2021/07/30 09:09:24;;;;;;;4.13;3.33;;;;;;;;;;5075255;28;20965;-73
2021/07/30 09:11:54;;;;;;;4.23;3.00;;;;;;;;;;5075484;28;20443;-73
2021/07/30 09:14:33;;;;;;;4.70;2.53;;;;;;;;;;5076236;28;20455;-74
2021/07/30 09:17:00;;;;;;;6.17;3.27;;;;;;;;;;5076153;28;20436;-74
2021/07/30 09:19:27;;;;;;;6.10;3.40;;;;;;;;;;5075216;28;20509;-73
2021/07/30 09:22:03;;;;;;;5.70;3.30;;;;;;;;;;5075000;28;20987;-73
2021/07/30 09:24:35;;;;;;;5.57;3.00;;;;;;;;;;5075005;28;20466;-72
2021/07/30 09:27:02;;;;;;;7.30;3.00;;;;;;;;;;5074951;28;20431;-75
2021/07/30 09:29:31;;;;;;;6.87;3.60;;;;;;;;;;5075081;28;20531;-76
2021/07/30 09:31:59;;;;;;;3.23;2.93;;;;;;;;;;5074787;28;20482;-75
2021/07/30 09:34:27;;;;;;;5.60;3.33;;;;;;;;;;5074948;28;20452;-77
2021/07/30 09:36:55;;;;;;;4.47;2.73;;;;;;;;;;5075171;28;20954;-71
2021/07/30 09:39:23;;;;;;;4.40;2.90;;;;;;;;;;5075120;28;20566;-72
2021/07/30 09:42:01;;;;;;;3.43;2.77;;;;;;;;;;5074836;28;20436;-76
2021/07/30 09:44:29;;;;;;;4.23;2.60;;;;;;;;;;5075208;28;20511;-76
2021/07/30 09:47:09;;;;;;;3.90;2.90;;;;;;;;;;5074814;28;20933;-75
2021/07/30 09:49:40;;;;;;;3.63;2.70;;;;;;;;;;5074428;28;20445;-70
2021/07/30 09:52:10;;;;;;;4.00;3.30;;;;;;;;;;5074615;28;20446;-77
2021/07/30 09:54:38;;;;;;;6.20;2.60;;;;;;;;;;5075193;28;20557;-76
2021/07/30 09:57:07;;;;;;;5.30;3.07;;;;;;;;;;5074202;28;20450;-79
2021/07/30 09:59:38;;;;;;;7.30;3.23;;;;;;;;;;5074446;28;20448;-69
2021/07/30 10:02:07;;;;;;;4.80;3.23;;;;;;;;;;5074236;28;20429;-72
2021/07/30 10:04:36;;;;;;;3.80;2.97;;;;;;;;;;5074078;28;20441;-74
2021/07/30 10:07:04;;;;;;;2.83;2.63;;;;;;;;;;5074413;28;20859;-76
2021/07/30 10:09:32;;;;;;;2.90;2.70;;;;;;;;;;5074606;28;20446;-75
2021/07/30 10:12:01;;;;;;;3.77;3.00;;;;;;;;;;5074286;28;20447;-71
2021/07/30 10:14:30;;;;;;;5.10;2.80;;;;;;;;;;5074504;28;20524;-76
2021/07/30 10:17:01;;;;;;;7.03;3.60;;;;;;;;;;5074334;28;20447;-73
2021/07/30 10:19:29;;;;;;;4.43;3.10;;;;;;;;;;5073857;28;20960;-75
2021/07/30 10:21:57;;;;;;;4.00;3.33;;;;;;;;;;5074480;28;20855;-77
2021/07/30 10:24:25;;;;;;;6.73;3.40;;;;;;;;;;5074376;28;20469;-78
2021/07/30 10:26:52;;;;;;;4.20;3.10;;;;;;;;;;5074216;28;20526;-79
2021/07/30 10:29:19;;;;;;;3.93;3.50;;;;;;;;;;5073934;28;20790;-76
2021/07/30 10:31:51;;;;;;;6.23;3.13;;;;;;;;;;5074398;28;20476;-79
2021/07/30 10:34:19;;;;;;;3.20;2.70;;;;;;;;;;5074078;28;20813;-78
2021/07/30 10:36:46;;;;;;;8.60;3.40;;;;;;;;;;5073765;28;20532;-77
2021/07/30 10:39:16;;;;;;;4.13;3.03;;;;;;;;;;5074098;28;20567;-79
2021/07/30 10:42:04;;;;;;;4.17;2.30;;;;;;;;;;5073744;28;20492;-73
2021/07/30 10:44:31;;;;;;;3.00;2.63;;;;;;;;;;5073892;28;20437;-71
2021/07/30 10:47:13;;;;;;;3.20;2.90;;;;;;;;;;5073446;28;20536;-76
2021/07/30 10:49:42;;;;;;;4.50;3.13;;;;;;;;;;5072758;28;20484;-70
2021/07/30 10:52:28;;;;;;;3.70;2.67;;;;;;;;;;5073944;28;20490;-74
2021/07/30 10:54:55;;;;;;;2.60;2.40;;;;;;;;;;5073714;28;20448;-73
2021/07/30 10:57:41;;;;;;;3.33;2.67;;;;;;;;;;5074130;28;20573;-76
2021/07/30 11:00:09;;;;;;;5.13;3.33;;;;;;;;;;5073795;28;20491;-75
2021/07/30 11:02:51;;;;;;;4.00;3.33;;;;;;;;;;5074048;28;20441;-75
2021/07/30 11:05:19;;;;;;;4.27;3.87;;;;;;;;;;5072553;28;20482;-77
2021/07/30 11:07:49;;;;;;;6.70;3.20;;;;;;;;;;5072967;28;20442;-72
2021/07/30 11:10:17;;;;;;;3.50;3.20;;;;;;;;;;5073533;28;20483;-76
2021/07/30 11:12:45;;;;;;;4.00;3.27;;;;;;;;;;5073501;28;20531;-77
2021/07/30 11:15:14;;;;;;;3.90;2.83;;;;;;;;;;5073161;28;20481;-69
2021/07/30 11:17:41;;;;;;;2.70;2.50;;;;;;;;;;5073637;28;20765;-83
2021/07/30 11:20:09;;;;;;;3.33;2.77;;;;;;;;;;5073417;28;20565;-78
2021/07/30 11:22:39;;;;;;;4.27;2.70;;;;;;;;;;5073480;28;20770;-78
2021/07/30 11:25:11;;;;;;;4.93;3.07;;;;;;;;;;5073024;28;20446;-78
2021/07/30 11:27:39;;;;;;;4.83;2.97;;;;;;;;;;5073302;28;21022;-77
2021/07/30 11:30:07;;;;;;;3.93;3.30;;;;;;;;;;5073707;28;20454;-72
2021/07/30 11:32:34;;;;;;;5.27;3.20;;;;;;;;;;5073281;28;20439;-75
2021/07/30 11:35:10;;;;;;;6.77;2.87;;;;;;;;;;5073767;28;20446;-73
2021/07/30 11:37:39;;;;;;;3.20;2.90;;;;;;;;;;5072705;28;20488;-76
2021/07/30 11:40:07;;;;;;;4.43;3.43;;;;;;;;;;5072839;28;20797;-79
2021/07/30 11:42:34;;;;;;;3.50;3.13;;;;;;;;;;5072942;28;20975;-77
2021/07/30 11:45:04;;;;;;;3.00;2.70;;;;;;;;;;5073195;28;20896;-72
2021/07/30 11:47:32;;;;;;;3.70;3.27;;;;;;;;;;5072853;28;20462;-77
2021/07/30 11:50:04;;;;;;;4.60;3.70;;;;;;;;;;5073130;28;20466;-73
2021/07/30 11:52:31;;;;;;;3.93;3.37;;;;;;;;;;5073577;28;20526;-75
2021/07/30 11:55:13;;;;;;;4.33;3.33;;;;;;;;;;5072711;28;20550;-73
2021/07/30 11:57:40;;;;;;;3.70;3.10;;;;;;;;;;5073606;28;20426;-79
2021/07/30 12:00:08;;;;;;;4.97;3.13;;;;;;;;;;5072937;28;20446;-71
2021/07/30 12:02:35;;;;;;;3.73;3.20;;;;;;;;;;5073273;28;21016;-74
2021/07/30 12:05:03;;;;;;;5.73;2.87;;;;;;;;;;5072708;28;20439;-76
2021/07/30 12:07:35;;;;;;;5.80;3.10;;;;;;;;;;5073197;28;20443;-80
2021/07/30 12:10:03;;;;;;;3.47;3.20;;;;;;;;;;5073200;28;20530;-73
2021/07/30 12:12:33;;;;;;;4.90;3.30;;;;;;;;;;5073124;28;20447;-72
2021/07/30 12:15:01;;;;;;;4.67;3.90;;;;;;;;;;5072766;28;20501;-77
2021/07/30 12:17:30;;;;;;;4.67;3.37;;;;;;;;;;5073492;28;20451;-78
2021/07/30 12:19:58;;;;;;;10.40;3.63;;;;;;;;;;5074094;28;20514;-79
2021/07/30 12:22:35;;;;;;;3.70;3.40;;;;;;;;;;5076878;28;20479;-72
2021/07/30 12:25:03;;;;;;;4.83;3.60;;;;;;;;;;5076059;28;20496;-78
2021/07/30 12:27:32;;;;;;;4.33;3.70;;;;;;;;;;5076782;28;20444;-77
2021/07/30 12:29:59;;;;;;;4.40;3.40;;;;;;;;;;5076060;28;20950;-73
2021/07/30 12:32:28;;;;;;;4.43;4.03;;;;;;;;;;5076276;28;20546;-73
2021/07/30 12:34:56;;;;;;;4.10;3.60;;;;;;;;;;5076155;28;20483;-76
2021/07/30 12:37:23;;;;;;;4.67;3.97;;;;;;;;;;5076676;28;20795;-78
2021/07/30 12:39:56;;;;;;;6.00;3.93;;;;;;;;;;5075781;28;20448;-76
2021/07/30 12:42:24;;;;;;;7.23;3.63;;;;;;;;;;5076139;28;20747;-75
2021/07/30 12:45:06;;;;;;;3.90;3.60;;;;;;;;;;5076010;28;20448;-77
2021/07/30 12:47:34;;;;;;;7.90;3.57;;;;;;;;;;5075995;28;21188;-80
2021/07/30 12:50:02;;;;;;;4.37;3.97;;;;;;;;;;5075979;28;20473;-81
2021/07/30 12:52:29;;;;;;;4.67;4.10;;;;;;;;;;5076589;28;20451;-74
2021/07/30 12:55:06;;;;;;;4.60;4.07;;;;;;;;;;5076409;28;20454;-79
2021/07/30 12:57:52;;;;;;;4.63;3.70;;;;;;;;;;5073407;28;20508;-78
2021/07/30 13:00:30;;;;;;;7.03;3.97;;;;;;;;;;5064301;28;20510;-84
2021/07/30 13:02:57;;;;;;;9.10;3.87;;;;;;;;;;5055733;28;20435;-76
2021/07/30 13:05:27;;;;;;;5.77;3.73;;;;;;;;;;5055831;28;20456;-79
2021/07/30 13:07:55;;;;;;;4.07;3.67;;;;;;;;;;5056128;28;20505;-80
2021/07/30 13:10:23;;;;;;;4.30;3.90;;;;;;;;;;5055185;28;20933;-78
2021/07/30 13:12:50;;;;;;;5.63;3.90;;;;;;;;;;5055223;28;20509;-77
2021/07/30 13:15:17;;;;;;;4.20;3.90;;;;;;;;;;5055225;28;20912;-80
2021/07/30 13:17:46;;;;;;;5.10;3.53;;;;;;;;;;5055145;28;20460;-77
2021/07/30 13:20:13;;;;;;;3.60;3.30;;;;;;;;;;5055374;28;20943;-85
2021/07/30 13:22:40;;;;;;;4.40;4.00;;;;;;;;;;5055373;28;20480;-76
2021/07/30 13:25:08;;;;;;;4.17;3.73;;;;;;;;;;5055454;28;20962;-83
2021/07/30 13:27:35;;;;;;;3.87;3.57;;;;;;;;;;5059189;28;20854;-78
2021/07/30 13:30:02;;;;;;;4.67;3.73;;;;;;;;;;5074966;28;20823;-84
2021/07/30 13:32:29;;;;;;;4.30;3.93;;;;;;;;;;5075462;28;20444;-80
2021/07/30 13:34:58;;;;;;;5.60;4.07;;;;;;;;;;5075090;28;20442;-82
2021/07/30 13:37:25;;;;;;;4.37;4.00;;;;;;;;;;5075092;28;20806;-81
2021/07/30 13:39:52;;;;;;;5.60;3.57;;;;;;;;;;5075835;28;20509;-77
2021/07/30 13:42:20;;;;;;;5.67;4.00;;;;;;;;;;5074890;28;20577;-80
2021/07/30 13:44:54;;;;;;;4.07;3.20;;;;;;;;;;5075180;28;20447;-78
2021/07/30 13:47:21;;;;;;;4.10;3.60;;;;;;;;;;5074651;28;20451;-70
2021/07/30 13:49:48;;;;;;;4.20;3.80;;;;;;;;;;5075124;28;20508;-78
2021/07/30 13:52:17;;;;;;;4.43;3.53;;;;;;;;;;5075085;28;20446;-72
2021/07/30 13:54:44;;;;;;;6.73;3.90;;;;;;;;;;5075442;28;20539;-82
2021/07/30 13:57:11;;;;;;;4.73;3.60;;;;;;;;;;5074364;28;20513;-79
2021/07/30 13:59:39;;;;;;;3.87;3.57;;;;;;;;;;5074898;28;20523;-82
2021/07/30 14:02:06;;;;;;;4.80;3.80;;;;;;;;;;5074394;28;20795;-75
2021/07/30 14:04:37;;;;;;;3.47;3.17;;;;;;;;;;5074443;28;20496;-78
2021/07/30 14:07:05;;;;;;;6.60;3.40;;;;;;;;;;5074187;28;20414;-77
2021/07/30 14:09:37;;;;;;;4.50;4.03;;;;;;;;;;5073986;28;20457;-73
2021/07/30 14:12:05;;;;;;;4.00;3.70;;;;;;;;;;5075073;28;20463;-78
2021/07/30 14:14:36;;;;;;;6.67;3.60;;;;;;;;;;5075409;28;20534;-81
2021/07/30 14:17:04;;;;;;;6.20;3.33;;;;;;;;;;5073835;28;20418;-82
2021/07/30 14:19:34;;;;;;;4.20;3.80;;;;;;;;;;5074271;28;20515;-79
2021/07/30 14:22:02;;;;;;;5.10;4.27;;;;;;;;;;5074235;28;20472;-80
2021/07/30 14:24:29;;;;;;;4.73;4.00;;;;;;;;;;5074113;28;20486;-82
2021/07/30 14:26:58;;;;;;;7.00;3.23;;;;;;;;;;5074173;28;20407;-75
2021/07/30 14:29:25;;;;;;;4.43;3.90;;;;;;;;;;5073913;28;20538;-81
2021/07/30 14:31:52;;;;;;;5.30;3.60;;;;;;;;;;5074136;28;20487;-80
2021/07/30 14:34:19;;;;;;;4.43;4.03;;;;;;;;;;5073784;28;20425;-80
2021/07/30 14:36:47;;;;;;;4.23;3.53;;;;;;;;;;5074715;28;20413;-79
2021/07/30 14:39:19;;;;;;;4.73;4.07;;;;;;;;;;5073793;28;20955;-81
2021/07/30 14:41:46;;;;;;;4.20;3.90;;;;;;;;;;5073447;28;21071;-74
2021/07/30 14:44:17;;;;;;;4.33;3.93;;;;;;;;;;5073824;28;20472;-79
2021/07/30 14:46:44;;;;;;;4.23;3.53;;;;;;;;;;5073647;28;20439;-80
2021/07/30 14:49:14;;;;;;;4.07;3.50;;;;;;;;;;5073962;28;20455;-81
2021/07/30 14:51:42;;;;;;;4.23;3.70;;;;;;;;;;5073690;28;20511;-82